createdAt,value
2017-11-24T00:01:41.514Z,100637.63
2017-11-24T00:03:43.956Z,100627.30
2017-11-24T00:14:07.929Z,100617.76
2017-11-24T00:16:09.883Z,100628.25
2017-11-24T00:18:11.790Z,100626.12
2017-11-24T00:20:13.762Z,100623.29
2017-11-24T00:22:15.778Z,100619.81
2017-11-24T00:32:06.529Z,100588.95
2017-11-24T00:34:08.714Z,100592.95
2017-11-24T00:36:10.958Z,100598.25
2017-11-24T00:38:13.015Z,100600.44
2017-11-24T00:40:15.034Z,100599.67
2017-11-24T00:42:17.350Z,100599.86
2017-11-24T00:44:19.265Z,100594.86
2017-11-24T00:46:24.741Z,100598.45
2017-11-24T00:48:26.713Z,100594.17
2017-11-24T00:52:45.225Z,100592.04
2017-11-24T00:54:47.558Z,100596.31
2017-11-24T00:56:49.265Z,100592.11
2017-11-24T00:58:51.691Z,100586.62
2017-11-24T01:00:53.442Z,100579.83
2017-11-24T01:02:55.248Z,100576.81
2017-11-24T01:04:57.568Z,100568.73
2017-11-24T01:06:59.273Z,100560.95
2017-11-24T01:09:01.694Z,100557.52
2017-11-24T01:11:03.866Z,100558.47
2017-11-24T01:13:05.726Z,100556.33
2017-11-24T01:15:07.878Z,100546.03
2017-11-24T01:17:09.968Z,100554.80
2017-11-24T01:19:12.030Z,100554.01
2017-11-24T01:21:14.040Z,100541.61
2017-11-24T01:23:16.473Z,100543.74
2017-11-24T01:25:18.184Z,100534.73
2017-11-24T01:27:20.215Z,100527.00
2017-11-24T01:29:22.555Z,100527.46
2017-11-24T01:31:24.768Z,100525.40
2017-11-24T01:33:26.878Z,100514.19
2017-11-24T01:35:29.770Z,100519.86
2017-11-24T01:37:31.726Z,100507.05
2017-11-24T01:39:33.781Z,100497.56
2017-11-24T01:41:35.865Z,100489.82
2017-11-24T01:43:37.992Z,100499.50
2017-11-24T01:45:40.610Z,100504.38
2017-11-24T01:47:42.473Z,100500.42
2017-11-24T01:49:44.609Z,100491.42
2017-11-24T01:51:46.277Z,100486.69
2017-11-24T01:53:48.427Z,100488.91
2017-11-24T01:55:50.828Z,100483.72
2017-11-24T01:57:52.754Z,100476.44
2017-11-24T01:59:54.832Z,100472.17
2017-11-24T02:01:56.920Z,100467.48
2017-11-24T02:03:59.287Z,100458.91
2017-11-24T02:06:01.557Z,100455.23
2017-11-24T02:08:03.724Z,100449.70
2017-11-24T02:10:05.633Z,100442.73
2017-11-24T02:12:09.226Z,100439.91
2017-11-24T02:14:11.333Z,100436.74
2017-11-24T02:16:13.257Z,100442.81
2017-11-24T02:18:15.579Z,100441.09
2017-11-24T02:20:17.849Z,100455.39
2017-11-24T02:22:19.766Z,100464.96
2017-11-24T02:24:21.749Z,100477.02
2017-11-24T02:26:23.867Z,100478.80
2017-11-24T02:28:26.404Z,100462.06
2017-11-24T02:38:14.181Z,100441.02
2017-11-24T02:40:16.469Z,100447.42
2017-11-24T02:42:18.260Z,100451.02
2017-11-24T02:44:20.712Z,100451.02
2017-11-24T02:46:22.889Z,100434.23
2017-11-24T02:48:24.931Z,100428.75
2017-11-24T02:50:28.259Z,100432.67
2017-11-24T02:52:30.604Z,100427.08
2017-11-24T02:54:32.863Z,100425.78
2017-11-24T02:56:34.957Z,100420.67
2017-11-24T02:58:37.397Z,100418.16
2017-11-24T03:00:39.581Z,100411.75
2017-11-24T03:02:41.727Z,100407.41
2017-11-24T03:04:43.776Z,100404.97
2017-11-24T03:06:45.836Z,100402.53
2017-11-24T03:08:47.925Z,100405.12
2017-11-24T03:10:50.061Z,100398.19
2017-11-24T03:12:52.279Z,100399.52
2017-11-24T03:14:54.219Z,100398.22
2017-11-24T03:16:56.671Z,100398.72
2017-11-24T03:18:58.841Z,100405.66
2017-11-24T03:21:00.902Z,100412.13
2017-11-24T03:23:02.963Z,100398.75
2017-11-24T03:25:04.982Z,100388.97
2017-11-24T03:27:06.789Z,100390.72
2017-11-24T03:29:08.724Z,100396.39
2017-11-24T03:31:10.762Z,100399.45
2017-11-24T03:33:12.763Z,100409.81
2017-11-24T03:35:14.732Z,100403.48
2017-11-24T03:37:16.682Z,100399.56
2017-11-24T03:39:18.860Z,100388.89
2017-11-24T03:41:20.918Z,100384.20
2017-11-24T03:44:53.791Z,100371.33
2017-11-24T03:46:55.899Z,100355.40
2017-11-24T03:48:58.264Z,100341.64
2017-11-24T03:51:00.422Z,100332.23
2017-11-24T03:53:02.696Z,100321.48
2017-11-24T03:55:04.843Z,100302.25
2017-11-24T03:57:06.808Z,100271.95
2017-11-24T03:59:09.247Z,100267.77
2017-11-24T04:01:11.477Z,100265.55
2017-11-24T04:03:13.260Z,100262.20
2017-11-24T04:05:15.716Z,100256.59
2017-11-24T04:07:17.750Z,100250.63
2017-11-24T04:09:19.918Z,100247.73
2017-11-24T04:11:22.278Z,100255.92
2017-11-24T04:13:24.380Z,100243.46
2017-11-24T04:15:26.725Z,100236.56
2017-11-24T04:17:28.783Z,100228.38
2017-11-24T04:19:30.737Z,100229.67
2017-11-24T04:21:32.814Z,100228.91
2017-11-24T04:23:34.756Z,100244.04
2017-11-24T04:25:36.826Z,100269.45
2017-11-24T04:27:38.951Z,100294.19
2017-11-24T04:29:40.893Z,100294.59
2017-11-24T04:31:42.932Z,100302.38
2017-11-24T04:33:45.053Z,100292.13
2017-11-24T04:35:47.212Z,100258.68
2017-11-24T04:37:49.303Z,100244.02
2017-11-24T04:39:51.360Z,100237.16
2017-11-24T04:41:53.672Z,100242.72
2017-11-24T04:43:55.734Z,100219.03
2017-11-24T04:45:58.680Z,100222.11
2017-11-24T04:48:00.878Z,100226.00
2017-11-24T04:50:02.942Z,100202.27
2017-11-24T04:52:04.911Z,100176.90
2017-11-24T04:54:07.024Z,100232.98
2017-11-24T04:56:09.542Z,100252.36
2017-11-24T04:58:11.415Z,100214.04
2017-11-24T05:00:13.468Z,100309.09
2017-11-24T05:02:15.738Z,100271.61
2017-11-24T05:04:17.733Z,100250.13
2017-11-24T05:06:19.835Z,100264.83
2017-11-24T05:08:21.921Z,100250.13
2017-11-24T05:10:24.923Z,100255.69
2017-11-24T05:12:27.252Z,100247.58
2017-11-24T05:14:31.720Z,100238.55
2017-11-24T05:16:34.069Z,100251.57
2017-11-24T05:18:36.437Z,100266.70
2017-11-24T05:20:39.036Z,100268.87
2017-11-24T05:22:41.101Z,100268.87
2017-11-24T05:24:43.561Z,100266.39
2017-11-24T05:26:45.808Z,100277.70
2017-11-24T05:28:47.991Z,100271.69
2017-11-24T05:30:50.559Z,100290.66
2017-11-24T05:32:52.807Z,100292.03
2017-11-24T05:34:55.078Z,100298.13
2017-11-24T05:36:57.883Z,100312.41
2017-11-24T05:38:59.836Z,100320.30
2017-11-24T05:41:02.412Z,100317.28
2017-11-24T05:43:04.894Z,100318.23
2017-11-24T05:45:07.365Z,100323.45
2017-11-24T05:47:09.732Z,100335.56
2017-11-24T05:49:11.781Z,100341.23
2017-11-24T05:51:13.964Z,100336.55
2017-11-24T05:53:16.277Z,100339.56
2017-11-24T05:55:18.708Z,100353.50
2017-11-24T05:57:20.964Z,100353.92
2017-11-24T05:59:23.467Z,100358.27
2017-11-24T06:01:25.777Z,100356.55
2017-11-24T06:03:28.071Z,100360.50
2017-11-24T06:05:30.543Z,100348.48
2017-11-24T06:07:32.820Z,100339.53
2017-11-24T06:09:35.098Z,100341.31
2017-11-24T06:11:37.859Z,100343.06
2017-11-24T06:13:40.565Z,100349.53
2017-11-24T06:15:42.911Z,100345.34
2017-11-24T06:17:45.996Z,100329.85
2017-11-24T06:19:48.229Z,100329.92
2017-11-24T06:21:50.946Z,100320.13
2017-11-24T06:23:53.745Z,100317.78
2017-11-24T06:25:56.113Z,100302.05
2017-11-24T06:27:58.682Z,100297.41
2017-11-24T06:30:01.239Z,100291.81
2017-11-24T06:32:03.925Z,100272.50
2017-11-24T06:34:06.848Z,100285.41
2017-11-24T06:36:09.908Z,100276.73
2017-11-24T06:38:12.886Z,100269.08
2017-11-24T06:40:16.112Z,100289.79
2017-11-24T06:42:19.417Z,100279.09
2017-11-24T06:44:22.057Z,100260.09
2017-11-24T06:46:24.758Z,100276.08
2017-11-24T06:48:27.809Z,100299.04
2017-11-24T06:50:30.692Z,100308.10
2017-11-24T06:52:33.416Z,100312.86
2017-11-24T06:54:35.965Z,100336.62
2017-11-24T06:56:38.963Z,100349.14
2017-11-24T06:58:41.288Z,100359.95
2017-11-24T07:00:44.719Z,100380.67
2017-11-24T07:02:46.984Z,100411.36
2017-11-24T07:04:49.558Z,100426.92
2017-11-24T07:06:52.441Z,100423.08
2017-11-24T07:08:54.309Z,100416.28
2017-11-24T07:10:56.963Z,100380.70
2017-11-24T07:12:59.542Z,100359.41
2017-11-24T07:15:01.809Z,100385.48
2017-11-24T07:17:04.893Z,100382.44
2017-11-24T07:19:07.374Z,100387.92
2017-11-24T07:21:09.935Z,100380.47
2017-11-24T07:23:12.696Z,100381.38
2017-11-24T07:25:15.287Z,100399.64
2017-11-24T07:27:18.061Z,100397.47
2017-11-24T07:29:21.065Z,100402.83
2017-11-24T07:31:23.984Z,100399.75
2017-11-24T07:33:26.839Z,100408.39
2017-11-24T07:35:28.903Z,100433.05
2017-11-24T07:37:31.441Z,100436.52
2017-11-24T07:39:33.747Z,100441.72
2017-11-24T07:41:35.968Z,100443.02
2017-11-24T07:43:38.895Z,100444.91
2017-11-24T07:45:41.899Z,100444.07
2017-11-24T07:47:45.089Z,100444.11
2017-11-24T07:55:55.575Z,100485.27
2017-11-24T07:57:57.951Z,100481.38
2017-11-24T08:00:00.759Z,100486.74
2017-11-24T08:02:03.069Z,100492.75
2017-11-24T08:04:05.990Z,100498.80
2017-11-24T08:06:09.073Z,100499.33
2017-11-24T08:08:12.067Z,100498.98
2017-11-24T08:10:14.754Z,100500.31
2017-11-24T08:12:17.037Z,100522.83
2017-11-24T08:14:20.098Z,100517.27
2017-11-24T08:16:23.079Z,100510.87
2017-11-24T08:18:25.880Z,100506.22
2017-11-24T08:29:01.998Z,100509.86
2017-11-24T08:31:04.961Z,100515.55
2017-11-24T08:33:08.259Z,100518.14
2017-11-24T08:35:10.857Z,100519.85
2017-11-24T08:37:13.927Z,100517.30
2017-11-24T08:39:17.007Z,100510.27
2017-11-24T08:41:20.015Z,100523.95
2017-11-24T08:43:22.325Z,100528.73
2017-11-24T08:59:33.946Z,100551.80
2017-11-24T09:01:36.124Z,100547.99
2017-11-24T09:03:38.724Z,100557.11
2017-11-24T09:05:41.078Z,100555.02
2017-11-24T09:07:43.843Z,100552.88
2017-11-24T09:09:45.987Z,100567.98
2017-11-24T09:11:48.910Z,100568.37
2017-11-24T09:13:51.701Z,100565.05
2017-11-24T09:15:54.572Z,100568.13
2017-11-24T09:17:56.935Z,100574.59
2017-11-24T09:19:59.799Z,100577.17
2017-11-24T09:22:02.905Z,100584.62
2017-11-24T09:24:05.572Z,100586.33
2017-11-24T09:26:08.728Z,100590.20
2017-11-24T09:28:11.451Z,100589.41
2017-11-24T09:30:14.824Z,100591.60
2017-11-24T09:32:18.137Z,100586.50
2017-11-24T09:34:21.012Z,100607.64
2017-11-24T09:36:24.317Z,100610.16
2017-11-24T09:54:54.779Z,100641.40
2017-11-24T09:56:58.115Z,100640.34
2017-11-24T09:59:01.042Z,100644.44
2017-11-24T10:01:08.110Z,100636.78
2017-11-24T10:03:10.997Z,100648.42
2017-11-24T10:13:32.071Z,100669.95
2017-11-24T10:15:35.461Z,100670.89
2017-11-24T10:17:38.047Z,100668.76
2017-11-24T10:19:41.958Z,100669.17
2017-11-24T10:21:50.767Z,100666.63
2017-11-24T10:23:53.435Z,100670.47
2017-11-24T10:25:56.557Z,100673.05
2017-11-24T10:27:59.443Z,100670.38
2017-11-24T10:30:02.413Z,100662.33
2017-11-24T10:32:05.619Z,100663.62
2017-11-24T10:34:08.414Z,100672.31
2017-11-24T10:36:11.054Z,100677.48
2017-11-24T10:38:14.142Z,100676.20
2017-11-24T10:40:17.451Z,100688.25
2017-11-24T10:42:20.037Z,100684.79
2017-11-24T10:44:22.999Z,100693.04
2017-11-24T10:46:25.998Z,100695.63
2017-11-24T10:48:29.607Z,100699.08
2017-11-24T10:50:33.037Z,100697.40
2017-11-24T10:52:36.002Z,100702.09
2017-11-24T10:54:38.843Z,100707.33
2017-11-24T11:05:14.058Z,100719.45
2017-11-24T11:07:17.169Z,100717.77
2017-11-24T11:09:20.961Z,100721.68
2017-11-24T11:11:24.153Z,100723.42
2017-11-24T11:13:27.025Z,100727.30
2017-11-24T11:15:29.993Z,100743.21
2017-11-24T11:17:32.981Z,100744.92
2017-11-24T11:19:35.851Z,100740.62
2017-11-24T11:21:39.173Z,100742.82
2017-11-24T11:23:41.723Z,100737.69
2017-11-24T11:25:44.426Z,100742.82
2017-11-24T11:27:47.078Z,100736.81
2017-11-24T11:29:49.855Z,100750.19
2017-11-24T11:31:52.948Z,100741.14
2017-11-24T11:33:55.815Z,100756.23
2017-11-24T11:35:58.517Z,100754.98
2017-11-24T11:47:00.712Z,100758.15
2017-11-24T11:49:04.383Z,100756.86
2017-11-24T11:51:07.545Z,100760.20
2017-11-24T11:53:10.397Z,100766.19
2017-11-24T11:55:14.154Z,100769.43
2017-11-24T11:57:18.619Z,100772.08
2017-11-24T11:59:23.550Z,100766.31
2017-11-24T12:01:26.992Z,100770.85
2017-11-24T12:03:30.135Z,100768.45
2017-11-24T12:05:32.923Z,100778.45
2017-11-24T12:07:36.131Z,100781.98
2017-11-24T12:09:39.013Z,100779.41
2017-11-24T12:11:43.328Z,100783.70
2017-11-24T12:13:46.210Z,100783.67
2017-11-24T12:15:50.043Z,100788.60
2017-11-24T12:17:53.916Z,100784.91
2017-11-24T12:19:57.124Z,100781.48
2017-11-24T12:22:00.781Z,100782.32
2017-11-24T12:24:05.139Z,100774.16
2017-11-24T12:26:07.991Z,100775.72
2017-11-24T12:28:11.083Z,100782.87
2017-11-24T12:30:15.445Z,100784.16
2017-11-24T12:32:18.070Z,100791.58
2017-11-24T12:34:21.050Z,100789.47
2017-11-24T12:36:24.034Z,100791.23
2017-11-24T12:38:26.833Z,100791.12
2017-11-24T12:40:29.630Z,100793.11
2017-11-24T12:42:32.990Z,100799.17
2017-11-24T12:44:35.474Z,100793.98
2017-11-24T12:46:38.186Z,100793.41
2017-11-24T12:48:41.732Z,100791.20
2017-11-24T12:50:44.816Z,100787.69
2017-11-24T12:52:47.905Z,100789.71
2017-11-24T12:54:51.003Z,100780.36
2017-11-24T12:56:55.124Z,100788.27
2017-11-24T12:59:03.496Z,100778.22
2017-11-24T13:01:08.967Z,100782.91
2017-11-24T13:04:44.015Z,100782.95
2017-11-24T13:06:47.904Z,100779.52
2017-11-24T13:08:55.800Z,100783.91
2017-11-24T13:10:59.841Z,100786.02
2017-11-24T13:13:03.193Z,100785.31
2017-11-24T13:15:10.167Z,100781.80
2017-11-24T13:17:17.360Z,100782.61
2017-11-24T13:19:20.391Z,100781.30
2017-11-24T13:21:33.761Z,100793.11
2017-11-24T13:23:38.876Z,100788.91
2017-11-24T13:25:53.793Z,100790.23
2017-11-24T13:27:58.682Z,100787.98
2017-11-24T13:30:00.716Z,100794.02
2017-11-24T13:32:02.720Z,100787.11
2017-11-24T13:34:06.302Z,100795.70
2017-11-24T13:36:13.689Z,100794.02
2017-11-24T13:40:50.928Z,100807.23
2017-11-24T13:42:53.857Z,100814.59
2017-11-24T13:44:59.802Z,100817.84
2017-11-24T13:47:02.739Z,100812.95
2017-11-24T13:49:06.104Z,100817.88
2017-11-24T13:51:24.726Z,100819.13
2017-11-24T13:55:31.864Z,100829.70
2017-11-24T14:03:31.856Z,100832.88
2017-11-24T14:05:35.564Z,100834.70
2017-11-24T14:07:39.381Z,100842.64
2017-11-24T14:09:42.762Z,100834.47
2017-11-24T14:11:46.728Z,100838.28
2017-11-24T14:13:50.882Z,100853.86
2017-11-24T14:15:53.999Z,100844.72
2017-11-24T14:17:57.788Z,100843.80
2017-11-24T14:22:38.820Z,100851.01
2017-11-24T14:24:42.786Z,100854.87
2017-11-24T14:26:45.586Z,100849.71
2017-11-24T14:28:49.840Z,100852.84
2017-11-24T14:30:52.967Z,100852.14
2017-11-24T14:33:06.534Z,100848.32
2017-11-24T14:35:09.901Z,100851.80
2017-11-24T14:37:19.029Z,100859.16
2017-11-24T14:39:32.461Z,100857.45
2017-11-24T14:41:38.958Z,100860.67
2017-11-24T14:43:42.013Z,100859.84
2017-11-24T14:45:44.911Z,100858.02
2017-11-24T14:47:58.428Z,100856.69
2017-11-24T14:50:01.810Z,100861.03
2017-11-24T14:52:05.536Z,100861.08
2017-11-24T15:02:37.041Z,100869.81
2017-11-24T15:04:39.748Z,100868.98
2017-11-24T15:06:42.439Z,100865.96
2017-11-24T15:08:46.694Z,100865.55
2017-11-24T15:10:52.504Z,100860.56
2017-11-24T15:21:14.979Z,100858.33
2017-11-24T15:23:20.920Z,100861.84
2017-11-24T15:25:23.804Z,100859.84
2017-11-24T15:27:29.267Z,100866.09
2017-11-24T15:37:51.577Z,100878.11
2017-11-24T15:40:04.990Z,100886.84
2017-11-24T15:42:13.707Z,100881.37
2017-11-24T15:52:46.857Z,100879.77
2017-11-24T15:54:50.778Z,100880.53
2017-11-24T15:56:52.963Z,100881.16
2017-11-24T15:58:55.425Z,100879.45
2017-11-24T16:00:57.679Z,100873.07
2017-11-24T16:03:00.236Z,100867.50
2017-11-24T16:05:03.449Z,100870.30
2017-11-24T16:07:05.928Z,100879.91
2017-11-24T16:09:08.415Z,100877.77
2017-11-24T16:11:10.849Z,100880.11
2017-11-24T16:21:42.494Z,100880.84
2017-11-24T16:23:44.946Z,100873.56
2017-11-24T16:25:47.846Z,100874.58
2017-11-24T16:27:50.284Z,100881.61
2017-11-24T16:38:12.927Z,100879.12
2017-11-24T16:40:15.917Z,100880.91
2017-11-24T16:42:18.678Z,100880.13
2017-11-24T16:44:21.725Z,100869.41
2017-11-24T16:46:24.023Z,100877.78
2017-11-24T16:48:26.735Z,100876.48
2017-11-24T16:50:28.973Z,100870.63
2017-11-24T16:52:31.991Z,100879.28
2017-11-24T16:54:34.857Z,100879.77
2017-11-24T16:56:37.922Z,100873.43
2017-11-24T16:58:40.411Z,100876.12
2017-11-24T17:00:43.398Z,100874.86
2017-11-24T17:02:45.953Z,100876.72
2017-11-24T17:04:48.753Z,100876.01
2017-11-24T17:07:33.407Z,100886.12
2017-11-24T17:09:35.874Z,100886.71
2017-11-24T17:11:38.656Z,100897.56
2017-11-24T17:13:41.010Z,100892.91
2017-11-24T17:15:43.714Z,100890.84
2017-11-24T17:17:46.609Z,100890.94
2017-11-24T17:19:49.395Z,100891.81
2017-11-24T17:24:11.406Z,100901.56
2017-11-24T17:26:13.586Z,100897.33
2017-11-24T17:36:52.970Z,100896.86
2017-11-24T17:38:55.483Z,100893.88
2017-11-24T17:40:57.813Z,100896.60
2017-11-24T17:43:00.781Z,100893.17
2017-11-24T17:45:02.966Z,100897.13
2017-11-24T17:47:05.480Z,100900.27
2017-11-24T17:49:07.800Z,100898.27
2017-11-24T17:51:10.520Z,100900.53
2017-11-24T17:53:12.984Z,100908.30
2017-11-24T17:55:15.765Z,100903.28
2017-11-24T17:57:18.440Z,100907.17
2017-11-24T17:59:20.877Z,100909.02
2017-11-24T18:01:23.575Z,100905.62
2017-11-24T18:03:25.919Z,100907.85
2017-11-24T18:05:28.810Z,100906.66
2017-11-24T18:07:31.930Z,100910.22
2017-11-24T18:09:34.805Z,100903.00
2017-11-24T18:11:37.481Z,100901.70
2017-11-24T18:13:40.049Z,100906.59
2017-11-24T18:15:43.037Z,100902.33
2017-11-24T18:17:45.918Z,100899.80
2017-11-24T18:19:48.592Z,100895.14
2017-11-24T18:21:50.964Z,100905.59
2017-11-24T18:23:53.833Z,100904.33
2017-11-24T18:25:56.434Z,100903.46
2017-11-24T18:27:58.767Z,100907.44
2017-11-24T18:30:01.369Z,100909.29
2017-11-24T18:32:03.915Z,100905.41
2017-11-24T18:34:06.732Z,100906.34
2017-11-24T18:36:09.392Z,100907.31
2017-11-24T18:38:11.853Z,100914.30
2017-11-24T18:40:14.581Z,100909.58
2017-11-24T18:42:16.890Z,100913.91
2017-11-24T18:44:19.483Z,100916.18
2017-11-24T18:46:21.961Z,100917.16
2017-11-24T18:48:24.838Z,100917.16
2017-11-24T19:00:43.058Z,100918.83
2017-11-24T19:02:45.759Z,100909.94
2017-11-24T19:04:48.435Z,100917.34
2017-11-24T19:06:51.392Z,100916.08
2017-11-24T19:08:53.863Z,100917.02
2017-11-24T19:10:56.211Z,100914.01
2017-11-24T19:12:58.734Z,100920.06
2017-11-24T19:15:00.981Z,100918.41
2017-11-24T19:17:03.360Z,100923.62
2017-11-24T19:19:06.339Z,100911.61
2017-11-24T19:21:08.832Z,100915.49
2017-11-24T19:23:17.444Z,100917.27
2017-11-24T19:28:16.255Z,100919.53
2017-11-24T19:30:19.578Z,100924.78
2017-11-24T19:32:24.655Z,100922.19
2017-11-24T19:36:41.709Z,100921.41
2017-11-24T19:38:44.230Z,100911.61
2017-11-24T19:40:46.242Z,100910.77
2017-11-24T19:42:53.237Z,100909.50
2017-11-24T19:44:58.286Z,100906.56
2017-11-24T19:47:00.944Z,100900.61
2017-11-24T19:49:04.554Z,100904.58
2017-11-24T19:51:07.309Z,100906.75
2017-11-24T19:53:11.096Z,100916.67
2017-11-24T19:55:14.260Z,100910.72
2017-11-24T19:57:18.628Z,100906.09
2017-11-24T19:59:21.312Z,100901.77
2017-11-24T20:01:26.240Z,100904.80
2017-11-24T20:03:28.219Z,100894.32
2017-11-24T20:05:30.201Z,100895.88
2017-11-24T20:07:33.065Z,100895.09
2017-11-24T20:09:35.180Z,100893.80
2017-11-24T20:11:38.081Z,100888.43
2017-11-24T20:13:47.228Z,100891.77
2017-11-24T20:15:49.215Z,100891.80
2017-11-24T20:17:51.250Z,100887.55
2017-11-24T20:19:56.272Z,100875.14
2017-11-24T20:21:58.331Z,100875.59
2017-11-24T20:24:00.332Z,100882.09
2017-11-24T20:26:03.203Z,100876.59
2017-11-24T20:28:06.082Z,100880.11
2017-11-24T20:30:09.050Z,100877.16
2017-11-24T20:32:18.263Z,100872.48
2017-11-24T20:34:27.264Z,100877.30
2017-11-24T20:36:30.230Z,100876.88
2017-11-24T20:38:33.103Z,100876.45
2017-11-24T20:43:15.910Z,100879.68
2017-11-24T20:45:20.754Z,100873.66
2017-11-24T20:47:32.839Z,100862.96
2017-11-24T20:49:43.507Z,100871.14
2017-11-24T20:51:48.945Z,100863.41
2017-11-24T20:53:52.545Z,100863.09
2017-11-24T20:55:54.803Z,100869.55
2017-11-24T20:57:56.873Z,100865.73
2017-11-24T21:00:00.486Z,100865.83
2017-11-24T21:02:06.032Z,100861.98
2017-11-24T21:04:09.432Z,100867.25
2017-11-24T21:06:12.931Z,100858.20
2017-11-24T21:08:15.298Z,100856.58
2017-11-24T21:18:14.247Z,100856.67
2017-11-24T21:20:17.740Z,100858.84
2017-11-24T21:22:19.404Z,100855.38
2017-11-24T21:24:21.282Z,100851.95
2017-11-24T21:26:23.268Z,100853.83
2017-11-24T21:28:26.132Z,100846.97
2017-11-24T21:30:28.263Z,100850.84
2017-11-24T21:32:30.248Z,100842.77
2017-11-24T21:34:33.272Z,100848.35
2017-11-24T21:36:35.297Z,100843.21
2017-11-24T21:38:37.236Z,100841.11
2017-11-24T21:40:39.228Z,100838.11
2017-11-24T21:42:41.262Z,100839.85
2017-11-24T21:44:44.258Z,100841.14
2017-11-24T21:46:53.290Z,100837.69
2017-11-24T21:48:56.304Z,100832.16
2017-11-24T21:51:01.239Z,100826.14
2017-11-24T21:53:05.067Z,100824.46
2017-11-24T21:55:07.265Z,100821.16
2017-11-24T21:57:16.255Z,100816.37
2017-11-24T21:59:18.722Z,100818.97
2017-11-24T22:01:24.254Z,100814.21
2017-11-24T22:03:28.105Z,100816.86
2017-11-24T22:05:30.067Z,100806.55
2017-11-24T22:07:32.076Z,100805.26
2017-11-24T22:09:34.218Z,100801.80
2017-11-24T22:11:37.033Z,100794.08
2017-11-24T22:13:39.961Z,100800.63
2017-11-24T22:15:42.654Z,100795.52
2017-11-24T22:17:47.014Z,100793.84
2017-11-24T22:19:49.998Z,100796.08
2017-11-24T22:21:52.628Z,100795.14
2017-11-24T22:23:55.204Z,100794.33
2017-11-24T22:26:02.250Z,100793.91
2017-11-24T22:28:04.192Z,100791.87
2017-11-24T22:30:06.232Z,100793.58
2017-11-24T22:32:12.053Z,100793.61
2017-11-24T22:34:15.012Z,100795.33
2017-11-24T22:36:17.254Z,100795.75
2017-11-24T22:38:22.224Z,100794.06
2017-11-24T22:40:25.019Z,100797.16
2017-11-24T22:42:27.067Z,100793.34
2017-11-24T22:44:30.069Z,100797.26
2017-11-24T22:46:33.963Z,100786.05
2017-11-24T22:48:50.402Z,100786.92
2017-11-24T22:50:55.228Z,100783.55
2017-11-24T22:52:58.094Z,100777.58
2017-11-24T22:55:07.253Z,100785.33
2017-11-24T22:57:10.231Z,100784.10
2017-11-24T22:59:12.253Z,100781.61
2017-11-24T23:01:15.274Z,100785.00
2017-11-24T23:03:17.307Z,100782.09
2017-11-24T23:05:20.214Z,100779.58
2017-11-24T23:07:25.803Z,100782.19
2017-11-24T23:09:38.289Z,100786.03
2017-11-24T23:11:48.042Z,100777.89
2017-11-24T23:13:53.022Z,100775.37
2017-11-24T23:15:57.942Z,100772.36
2017-11-24T23:17:59.641Z,100769.45
2017-11-24T23:20:08.266Z,100769.88
2017-11-24T23:22:13.290Z,100776.01
2017-11-24T23:24:15.264Z,100784.66
2017-11-24T23:26:18.081Z,100774.33
2017-11-24T23:28:21.053Z,100773.09
2017-11-24T23:30:24.195Z,100776.97
2017-11-24T23:32:27.191Z,100768.80
2017-11-24T23:34:36.660Z,100767.48
2017-11-24T23:36:38.214Z,100765.77
2017-11-24T23:38:43.244Z,100765.86
2017-11-24T23:40:45.688Z,100758.56
2017-11-24T23:42:47.210Z,100759.42
2017-11-24T23:44:50.676Z,100745.77
2017-11-24T23:46:53.480Z,100748.44
2017-11-24T23:48:58.917Z,100741.05
2017-11-24T23:51:00.414Z,100734.55
2017-11-24T23:53:02.957Z,100732.91
2017-11-24T23:55:06.221Z,100729.51
2017-11-24T23:57:08.078Z,100727.80
2017-11-24T23:59:11.021Z,100733.03
